Time,TemperatureF,DewpointF,PressureIn,WindDirection,WindDirectionDegrees,WindSpeedMPH,WindSpeedGustMPH,Humidity,HourlyPrecipIn,Conditions,Clouds,dailyrainin,SoftwareType,DateUTC
2013-03-10 00:00:00,38.9,36.8,30.48,WNW,282,0.0,0.0,92,0.00,,---,0.01,VWS V14.00,2013-03-10 08:00:00,
2013-03-10 00:05:00,38.8,36.7,30.48,WNW,282,0.0,0.0,92,0.00,,---,0.00,VWS V14.00,2013-03-10 08:05:00,
2013-03-10 00:10:00,38.8,36.7,30.48,WNW,282,0.0,0.0,92,0.00,,---,0.00,VWS V14.00,2013-03-10 08:10:00,
2013-03-10 00:15:00,38.9,36.8,30.48,WNW,282,0.0,0.0,92,0.00,,---,0.00,VWS V14.00,2013-03-10 08:15:00,
2013-03-10 00:20:00,38.9,36.8,30.48,WNW,283,0.0,0.0,92,0.00,,---,0.00,VWS V14.00,2013-03-10 08:20:00,
2013-03-10 00:25:00,38.9,36.8,30.48,WNW,282,0.0,0.0,92,0.00,,---,0.00,VWS V14.00,2013-03-10 08:25:00,
2013-03-10 00:30:00,38.9,36.8,30.48,WNW,282,0.0,0.0,92,0.00,,---,0.00,VWS V14.00,2013-03-10 08:30:00,
2013-03-10 00:35:00,38.8,36.7,30.48,WNW,282,0.0,0.0,92,0.00,,---,0.00,VWS V14.00,2013-03-10 08:35:00,
2013-03-10 00:40:00,38.8,36.7,30.48,WNW,282,0.0,0.0,92,0.00,,---,0.00,VWS V14.00,2013-03-10 08:40:00,
2013-03-10 00:45:00,38.8,36.7,30.48,WNW,282,0.0,0.0,92,0.00,,---,0.00,VWS V14.00,2013-03-10 08:45:00,
2013-03-10 00:50:00,38.7,36.6,30.48,WNW,282,0.0,0.0,92,0.00,,---,0.00,VWS V14.00,2013-03-10 08:50:00,
2013-03-10 00:55:00,38.8,36.7,30.48,WNW,282,0.0,0.0,92,0.00,,---,0.00,VWS V14.00,2013-03-10 08:55:00,
2013-03-10 00:58:00,39.1,37.0,30.48,WNW,282,0.0,0.0,92,0.00,,---,0.00,VWS V14.00,2013-03-10 08:58:00,
2013-03-10 00:59:00,39.1,37.0,30.48,WNW,282,0.0,0.0,92,0.00,,---,0.00,VWS V14.00,2013-03-10 08:59:00,
2013-03-10 01:00:00,38.9,36.8,30.48,WNW,282,0.0,0.0,92,0.00,,---,0.00,VWS V14.00,2013-03-10 09:00:00,
2013-03-10 01:05:00,38.9,36.8,30.48,WNW,282,0.0,0.0,92,0.00,,---,0.00,VWS V14.00,2013-03-10 09:05:00,
2013-03-10 01:10:00,38.8,36.7,30.48,WNW,282,0.0,0.0,92,0.00,,---,0.00,VWS V14.00,2013-03-10 09:10:00,
2013-03-10 01:15:00,38.7,36.6,30.49,WNW,282,0.0,0.0,92,0.00,,---,0.00,VWS V14.00,2013-03-10 09:15:00,
2013-03-10 01:20:00,38.7,36.6,30.48,WNW,282,0.0,0.0,92,0.00,,---,0.00,VWS V14.00,2013-03-10 09:20:00,
2013-03-10 01:25:00,38.8,36.7,30.48,WNW,282,0.0,0.0,92,0.00,,---,0.00,VWS V14.00,2013-03-10 09:25:00,
2013-03-10 01:30:00,38.8,36.7,30.48,WNW,283,0.0,0.0,92,0.00,,---,0.00,VWS V14.00,2013-03-10 09:30:00,
2013-03-10 01:35:00,38.9,36.8,30.48,WNW,282,0.0,0.0,92,0.00,,---,0.00,VWS V14.00,2013-03-10 09:35:00,
2013-03-10 01:40:00,38.9,36.8,30.48,WNW,282,0.0,0.0,92,0.00,,---,0.00,VWS V14.00,2013-03-10 09:40:00,
2013-03-10 01:45:00,38.9,36.8,30.48,WNW,282,0.0,0.0,92,0.00,,---,0.00,VWS V14.00,2013-03-10 09:45:00,
2013-03-10 01:50:00,38.9,36.8,30.48,WNW,282,0.0,0.0,92,0.00,,---,0.00,VWS V14.00,2013-03-10 09:50:00,
2013-03-10 01:55:00,38.9,36.8,30.48,WNW,282,0.0,0.0,92,0.00,,---,0.00,VWS V14.00,2013-03-10 09:55:00,
2013-03-10 03:00:00,39.1,37.0,30.48,WNW,282,0.0,0.0,92,0.00,,---,0.00,VWS V14.00,2013-03-10 10:00:00,
2013-03-10 03:05:00,39.2,37.1,30.48,WNW,282,0.0,0.0,92,0.00,,---,0.00,VWS V14.00,2013-03-10 10:05:00,
2013-03-10 03:10:00,39.2,37.1,30.49,WNW,282,0.0,0.0,92,0.00,,---,0.00,VWS V14.00,2013-03-10 10:10:00,
2013-03-10 03:15:00,39.2,37.1,30.48,WNW,282,0.0,0.0,92,0.00,,---,0.00,VWS V14.00,2013-03-10 10:15:00,
2013-03-10 03:20:00,39.3,37.2,30.49,WNW,282,0.0,0.0,92,0.00,,---,0.00,VWS V14.00,2013-03-10 10:20:00,
2013-03-10 03:25:00,39.3,37.2,30.48,WNW,282,0.0,0.0,92,0.00,,---,0.00,VWS V14.00,2013-03-10 10:25:00,
2013-03-10 03:30:00,39.2,37.1,30.48,WNW,282,0.0,0.0,92,0.00,,---,0.00,VWS V14.00,2013-03-10 10:30:00,
2013-03-10 03:35:00,39.2,37.1,30.48,WNW,282,0.0,1.0,92,0.00,,---,0.00,VWS V14.00,2013-03-10 10:35:00,
2013-03-10 03:40:00,39.1,37.0,30.48,WNW,282,0.0,0.0,92,0.00,,---,0.00,VWS V14.00,2013-03-10 10:40:00,
2013-03-10 03:45:00,39.1,37.0,30.48,WNW,282,0.0,0.0,92,0.00,,---,0.00,VWS V14.00,2013-03-10 10:45:00,
2013-03-10 03:50:00,39.2,37.1,30.48,WNW,283,0.0,0.0,92,0.00,,---,0.00,VWS V14.00,2013-03-10 10:50:00,
2013-03-10 03:55:00,39.2,37.1,30.48,WNW,282,0.0,0.0,92,0.00,,---,0.00,VWS V14.00,2013-03-10 10:55:00,
2013-03-10 04:00:00,39.3,37.2,30.48,WNW,282,0.0,0.0,92,0.00,,---,0.00,VWS V14.00,2013-03-10 11:00:00,
2013-03-10 04:05:00,39.3,37.2,30.48,WNW,283,0.0,0.0,92,0.00,,---,0.00,VWS V14.00,2013-03-10 11:05:00,
2013-03-10 04:10:00,39.3,37.2,30.48,WNW,282,0.0,0.0,92,0.00,,---,0.00,VWS V14.00,2013-03-10 11:10:00,
2013-03-10 04:15:00,39.3,37.2,30.48,WNW,283,0.0,0.0,92,0.00,,---,0.00,VWS V14.00,2013-03-10 11:15:00,
2013-03-10 04:20:00,39.2,37.1,30.48,WNW,282,0.0,0.0,92,0.00,,---,0.00,VWS V14.00,2013-03-10 11:20:00,
2013-03-10 04:25:00,39.2,37.1,30.48,WNW,282,0.0,0.0,92,0.00,,---,0.00,VWS V14.00,2013-03-10 11:25:00,
2013-03-10 04:30:00,39.3,37.2,30.48,WNW,283,0.0,0.0,92,0.00,,---,0.00,VWS V14.00,2013-03-10 11:30:00,
2013-03-10 04:35:00,39.3,37.2,30.48,WNW,282,0.0,0.0,92,0.00,,---,0.00,VWS V14.00,2013-03-10 11:35:00,
2013-03-10 04:40:00,39.2,37.1,30.48,WNW,282,0.0,0.0,92,0.00,,---,0.00,VWS V14.00,2013-03-10 11:40:00,
2013-03-10 04:45:00,39.2,37.1,30.48,WNW,282,0.0,0.0,92,0.00,,---,0.00,VWS V14.00,2013-03-10 11:45:00,
2013-03-10 04:50:00,39.3,37.5,30.48,WNW,282,0.0,0.0,93,0.00,,---,0.00,VWS V14.00,2013-03-10 11:50:00,
2013-03-10 04:55:00,39.4,37.5,30.48,WNW,282,0.0,0.0,93,0.00,,---,0.00,VWS V14.00,2013-03-10 11:55:00,
2013-03-10 05:00:00,39.5,37.7,30.48,WNW,282,0.0,0.0,93,0.00,,---,0.00,VWS V14.00,2013-03-10 12:00:00,
2013-03-10 05:05:00,39.5,37.7,30.48,WNW,282,0.0,0.0,93,0.00,,---,0.00,VWS V14.00,2013-03-10 12:05:00,
2013-03-10 05:10:00,39.5,37.7,30.47,WNW,282,0.0,0.0,93,0.00,,---,0.00,VWS V14.00,2013-03-10 12:10:00,
2013-03-10 05:15:00,39.6,37.8,30.47,WNW,282,0.0,0.0,93,0.00,,---,0.00,VWS V14.00,2013-03-10 12:15:00,
2013-03-10 05:20:00,39.6,37.8,30.47,WNW,283,0.0,0.0,93,0.00,,---,0.00,VWS V14.00,2013-03-10 12:20:00,
2013-03-10 05:25:00,39.6,37.8,30.47,WNW,282,0.0,0.0,93,0.00,,---,0.00,VWS V14.00,2013-03-10 12:25:00,
2013-03-10 05:29:00,39.6,37.8,30.46,WNW,282,0.0,0.0,93,0.00,,---,0.00,VWS V14.00,2013-03-10 12:29:00,
2013-03-10 05:34:00,39.7,37.8,30.46,WNW,282,0.0,0.0,93,0.00,,---,0.00,VWS V14.00,2013-03-10 12:34:00,
2013-03-10 05:39:00,39.7,37.8,30.46,WNW,282,0.0,0.0,93,0.00,,---,0.00,VWS V14.00,2013-03-10 12:39:00,
2013-03-10 05:44:00,39.7,37.8,30.46,WNW,282,0.0,0.0,93,0.00,,---,0.00,VWS V14.00,2013-03-10 12:44:00,
2013-03-10 05:49:00,39.7,37.8,30.47,WNW,282,0.0,0.0,93,0.00,,---,0.00,VWS V14.00,2013-03-10 12:49:00,
2013-03-10 05:54:00,39.6,37.8,30.47,WNW,282,0.0,0.0,93,0.00,,---,0.00,VWS V14.00,2013-03-10 12:54:00,
2013-03-10 05:59:00,39.6,37.8,30.46,WNW,282,0.0,0.0,93,0.00,,---,0.00,VWS V14.00,2013-03-10 12:59:00,
2013-03-10 06:04:00,39.6,37.8,30.46,WNW,282,0.0,0.0,93,0.00,,---,0.00,VWS V14.00,2013-03-10 13:04:00,
2013-03-10 06:09:00,39.6,37.8,30.46,WNW,282,0.0,0.0,93,0.00,,---,0.00,VWS V14.00,2013-03-10 13:09:00,
2013-03-10 06:14:00,39.6,37.8,30.46,WNW,282,0.0,0.0,93,0.00,,---,0.00,VWS V14.00,2013-03-10 13:14:00,
2013-03-10 06:19:00,39.5,37.7,30.46,WNW,282,0.0,0.0,93,0.00,,---,0.00,VWS V14.00,2013-03-10 13:19:00,
2013-03-10 06:24:00,39.4,37.5,30.46,WNW,282,0.0,0.0,93,0.00,,---,0.00,VWS V14.00,2013-03-10 13:24:00,
2013-03-10 06:29:00,39.4,37.5,30.46,WNW,282,0.0,0.0,93,0.00,,---,0.00,VWS V14.00,2013-03-10 13:29:00,
2013-03-10 06:34:00,39.5,37.7,30.46,WNW,282,0.0,0.0,93,0.00,,---,0.00,VWS V14.00,2013-03-10 13:34:00,
2013-03-10 06:39:00,39.5,37.7,30.46,WNW,282,0.0,0.0,93,0.00,,---,0.00,VWS V14.00,2013-03-10 13:39:00,
2013-03-10 06:44:00,39.6,37.8,30.46,WNW,283,0.0,0.0,93,0.00,,---,0.00,VWS V14.00,2013-03-10 13:44:00,
2013-03-10 06:49:00,39.6,37.8,30.46,WNW,282,0.0,0.0,93,0.00,,---,0.00,VWS V14.00,2013-03-10 13:49:00,
2013-03-10 06:54:00,39.7,37.8,30.46,WNW,282,0.0,0.0,93,0.00,,---,0.00,VWS V14.00,2013-03-10 13:54:00,
2013-03-10 06:59:00,39.7,37.8,30.46,WNW,283,0.0,0.0,93,0.00,,---,0.00,VWS V14.00,2013-03-10 13:59:00,
2013-03-10 07:04:00,39.7,37.8,30.46,WNW,282,0.0,0.0,93,0.00,,---,0.00,VWS V14.00,2013-03-10 14:04:00,
2013-03-10 07:09:00,39.8,38.0,30.46,WNW,282,0.0,0.0,93,0.00,,---,0.00,VWS V14.00,2013-03-10 14:09:00,
2013-03-10 07:14:00,39.7,37.8,30.46,WNW,282,0.0,0.0,93,0.00,,---,0.00,VWS V14.00,2013-03-10 14:14:00,
2013-03-10 07:19:00,39.7,37.8,30.46,WNW,282,0.0,0.0,93,0.00,,---,0.00,VWS V14.00,2013-03-10 14:19:00,
2013-03-10 07:24:00,39.7,37.8,30.46,WNW,282,0.0,0.0,93,0.00,,---,0.00,VWS V14.00,2013-03-10 14:24:00,
2013-03-10 07:29:00,39.7,37.8,30.46,WNW,282,0.0,0.0,93,0.00,,---,0.00,VWS V14.00,2013-03-10 14:29:00,
2013-03-10 07:34:00,39.7,37.8,30.46,WNW,282,0.0,0.0,93,0.00,,---,0.00,VWS V14.00,2013-03-10 14:34:00,
2013-03-10 07:39:00,39.7,37.8,30.46,WNW,282,0.0,0.0,93,0.00,,---,0.00,VWS V14.00,2013-03-10 14:39:00,
2013-03-10 07:44:00,39.7,37.8,30.46,WNW,282,0.0,0.0,93,0.00,,---,0.00,VWS V14.00,2013-03-10 14:44:00,
2013-03-10 07:49:00,39.7,37.8,30.46,WNW,282,0.0,0.0,93,0.00,,---,0.00,VWS V14.00,2013-03-10 14:49:00,
2013-03-10 07:54:00,39.6,37.8,30.46,WNW,282,0.0,0.0,93,0.00,,---,0.00,VWS V14.00,2013-03-10 14:54:00,
2013-03-10 07:59:00,39.6,37.8,30.46,WNW,282,0.0,0.0,93,0.00,,---,0.00,VWS V14.00,2013-03-10 14:59:00,
2013-03-10 08:04:00,39.6,37.8,30.46,WNW,282,0.0,0.0,93,0.00,,---,0.00,VWS V14.00,2013-03-10 15:04:00,
2013-03-10 08:09:00,39.6,37.8,30.46,WNW,283,0.0,0.0,93,0.00,,---,0.00,VWS V14.00,2013-03-10 15:09:00,
2013-03-10 08:14:00,39.7,37.8,30.46,WNW,283,0.0,0.0,93,0.00,,---,0.00,VWS V14.00,2013-03-10 15:14:00,
2013-03-10 08:19:00,39.8,38.0,30.46,WNW,282,0.0,0.0,93,0.00,,---,0.00,VWS V14.00,2013-03-10 15:19:00,
2013-03-10 08:24:00,39.9,38.0,30.46,WNW,282,0.0,0.0,93,0.00,,---,0.00,VWS V14.00,2013-03-10 15:24:00,
2013-03-10 08:29:00,39.9,38.0,30.46,WNW,282,0.0,0.0,93,0.00,,---,0.00,VWS V14.00,2013-03-10 15:29:00,
2013-03-10 08:34:00,40.0,38.1,30.46,WNW,282,0.0,0.0,93,0.00,,---,0.00,VWS V14.00,2013-03-10 15:34:00,
2013-03-10 08:39:00,40.1,38.2,30.46,WNW,282,0.0,0.0,93,0.00,,---,0.00,VWS V14.00,2013-03-10 15:39:00,
2013-03-10 08:44:00,40.1,38.2,30.46,WNW,282,0.0,0.0,93,0.00,,---,0.00,VWS V14.00,2013-03-10 15:44:00,
2013-03-10 08:49:00,40.2,38.3,30.46,WNW,282,0.0,0.0,93,0.00,,---,0.00,VWS V14.00,2013-03-10 15:49:00,
2013-03-10 08:54:00,40.2,38.3,30.46,WNW,282,0.0,0.0,93,0.00,,---,0.00,VWS V14.00,2013-03-10 15:54:00,
2013-03-10 08:59:00,40.2,38.3,30.47,WNW,282,0.0,0.0,93,0.00,,---,0.00,VWS V14.00,2013-03-10 15:59:00,
2013-03-10 09:04:00,40.3,38.4,30.47,WNW,282,0.0,0.0,93,0.00,,---,0.00,VWS V14.00,2013-03-10 16:04:00,
2013-03-10 09:09:00,40.4,38.5,30.47,WNW,283,0.0,0.0,93,0.00,,---,0.00,VWS V14.00,2013-03-10 16:09:00,
2013-03-10 09:14:00,40.5,38.6,30.47,WNW,282,0.0,0.0,93,0.00,,---,0.00,VWS V14.00,2013-03-10 16:14:00,
2013-03-10 09:19:00,40.6,38.7,30.47,WNW,282,0.0,0.0,93,0.00,,---,0.00,VWS V14.00,2013-03-10 16:19:00,
2013-03-10 09:24:00,40.8,38.9,30.47,WNW,282,0.0,0.0,93,0.00,,---,0.00,VWS V14.00,2013-03-10 16:24:00,
2013-03-10 09:29:00,40.9,39.0,30.47,WNW,282,0.0,0.0,93,0.00,,---,0.00,VWS V14.00,2013-03-10 16:29:00,
2013-03-10 09:34:00,41.1,39.2,30.47,WNW,282,0.0,0.0,93,0.00,,---,0.00,VWS V14.00,2013-03-10 16:34:00,
2013-03-10 09:39:00,41.3,39.4,30.47,WNW,282,0.0,0.0,93,0.00,,---,0.00,VWS V14.00,2013-03-10 16:39:00,
2013-03-10 09:44:00,41.5,39.6,30.47,WNW,282,0.0,0.0,93,0.00,,---,0.00,VWS V14.00,2013-03-10 16:44:00,
2013-03-10 09:49:00,41.6,39.7,30.47,WNW,282,0.0,0.0,93,0.00,,---,0.00,VWS V14.00,2013-03-10 16:49:00,
2013-03-10 09:54:00,41.7,39.8,30.47,WNW,282,0.0,0.0,93,0.00,,---,0.00,VWS V14.00,2013-03-10 16:54:00,
2013-03-10 09:59:00,41.7,39.8,30.47,SW,225,0.0,1.0,93,0.00,,---,0.00,VWS V14.00,2013-03-10 16:59:00,
2013-03-10 10:04:00,41.8,39.9,30.47,SW,215,0.0,1.0,93,0.00,,---,0.00,VWS V14.00,2013-03-10 17:04:00,
2013-03-10 10:09:00,42.0,40.1,30.47,SW,215,0.0,1.0,93,0.00,,---,0.00,VWS V14.00,2013-03-10 17:09:00,
2013-03-10 10:14:00,42.0,39.8,30.47,WNW,291,1.0,5.0,92,0.00,,---,0.00,VWS V14.00,2013-03-10 17:14:00,
2013-03-10 10:19:00,42.3,40.2,30.47,WNW,292,0.0,1.0,92,0.00,,---,0.00,VWS V14.00,2013-03-10 17:19:00,
2013-03-10 10:24:00,42.4,40.0,30.47,West,281,0.0,5.0,91,0.00,,---,0.00,VWS V14.00,2013-03-10 17:24:00,
2013-03-10 10:29:00,42.6,39.9,30.47,West,281,0.0,1.0,90,0.00,,---,0.00,VWS V14.00,2013-03-10 17:29:00,
2013-03-10 10:34:00,42.7,40.0,30.47,North,10,0.0,2.0,90,0.00,,---,0.00,VWS V14.00,2013-03-10 17:34:00,
2013-03-10 10:39:00,42.8,39.8,30.47,North,10,0.0,1.0,89,0.00,,---,0.00,VWS V14.00,2013-03-10 17:39:00,
2013-03-10 10:44:00,42.9,39.6,30.47,WNW,289,0.0,5.0,88,0.00,,---,0.00,VWS V14.00,2013-03-10 17:44:00,
2013-03-10 10:49:00,42.9,39.3,30.46,NW,307,2.0,4.0,87,0.00,,---,0.00,VWS V14.00,2013-03-10 17:49:00,
2013-03-10 10:54:00,42.9,39.3,30.46,NW,310,0.0,2.0,87,0.00,,---,0.00,VWS V14.00,2013-03-10 17:54:00,
2013-03-10 10:59:00,43.1,39.5,30.46,NW,310,0.0,0.0,87,0.00,,---,0.00,VWS V14.00,2013-03-10 17:59:00,
2013-03-10 11:04:00,43.2,39.6,30.46,NW,310,0.0,1.0,87,0.00,,---,0.00,VWS V14.00,2013-03-10 18:04:00,
2013-03-10 11:09:00,43.2,39.3,30.46,NW,310,0.0,0.0,86,0.00,,---,0.00,VWS V14.00,2013-03-10 18:09:00,
2013-03-10 11:14:00,43.3,39.4,30.46,NW,310,0.0,0.0,86,0.00,,---,0.00,VWS V14.00,2013-03-10 18:14:00,
2013-03-10 11:19:00,43.3,39.1,30.46,NW,310,0.0,1.0,85,0.00,,---,0.00,VWS V14.00,2013-03-10 18:19:00,
2013-03-10 11:24:00,43.3,39.1,30.46,NE,38,1.0,2.0,85,0.00,,---,0.00,VWS V14.00,2013-03-10 18:24:00,
2013-03-10 11:29:00,43.4,39.2,30.46,NE,38,0.0,2.0,85,0.00,,---,0.00,VWS V14.00,2013-03-10 18:29:00,
2013-03-10 11:34:00,43.5,39.3,30.45,NE,37,0.0,1.0,85,0.00,,---,0.00,VWS V14.00,2013-03-10 18:34:00,
2013-03-10 11:39:00,43.7,39.5,30.46,NE,50,2.0,2.0,85,0.00,,---,0.00,VWS V14.00,2013-03-10 18:39:00,
2013-03-10 11:44:00,43.7,39.2,30.46,NE,50,0.0,2.0,84,0.00,,---,0.00,VWS V14.00,2013-03-10 18:44:00,
2013-03-10 11:49:00,43.7,39.5,30.46,NE,50,0.0,2.0,85,0.00,,---,0.00,VWS V14.00,2013-03-10 18:49:00,
2013-03-10 11:54:00,43.7,39.5,30.46,NE,50,0.0,2.0,85,0.00,,---,0.00,VWS V14.00,2013-03-10 18:54:00,
2013-03-10 11:59:00,43.8,39.6,30.46,NE,50,0.0,1.0,85,0.00,,---,0.00,VWS V14.00,2013-03-10 18:59:00,
2013-03-10 12:04:00,43.9,39.7,30.46,NE,50,0.0,1.0,85,0.00,,---,0.00,VWS V14.00,2013-03-10 19:04:00,
2013-03-10 12:09:00,43.9,39.7,30.46,NW,309,0.0,2.0,85,0.00,,---,0.00,VWS V14.00,2013-03-10 19:09:00,
2013-03-10 12:14:00,43.8,39.9,30.46,NW,305,0.0,2.0,86,0.00,,---,0.00,VWS V14.00,2013-03-10 19:14:00,
2013-03-10 12:19:00,43.8,39.9,30.46,NW,306,0.0,0.0,86,0.00,,---,0.00,VWS V14.00,2013-03-10 19:19:00,
2013-03-10 12:24:00,43.6,39.7,30.46,WNW,287,0.0,2.0,86,0.00,,---,0.00,VWS V14.00,2013-03-10 19:24:00,
2013-03-10 12:29:00,43.6,40.0,30.46,WNW,287,0.0,1.0,87,0.00,,---,0.00,VWS V14.00,2013-03-10 19:29:00,
2013-03-10 12:34:00,43.5,39.9,30.46,NNW,332,0.0,4.0,87,0.00,,---,0.00,VWS V14.00,2013-03-10 19:34:00,
2013-03-10 12:39:00,43.4,39.8,30.46,NNW,332,0.0,1.0,87,0.00,,---,0.00,VWS V14.00,2013-03-10 19:39:00,
2013-03-10 12:44:00,43.4,39.8,30.46,NNW,332,0.0,1.0,87,0.00,,---,0.00,VWS V14.00,2013-03-10 19:44:00,
2013-03-10 12:49:00,43.3,39.7,30.46,WSW,255,0.0,6.0,87,0.00,,---,0.00,VWS V14.00,2013-03-10 19:49:00,
2013-03-10 12:54:00,43.3,39.7,30.46,NNW,336,0.0,6.0,87,0.00,,---,0.00,VWS V14.00,2013-03-10 19:54:00,
2013-03-10 12:59:00,43.4,39.8,30.46,SSW,209,0.0,2.0,87,0.00,,---,0.00,VWS V14.00,2013-03-10 19:59:00,
2013-03-10 13:04:00,43.6,39.7,30.46,NE,53,0.0,2.0,86,0.00,,---,0.00,VWS V14.00,2013-03-10 20:04:00,
2013-03-10 13:09:00,44.1,40.5,30.46,NE,53,1.0,1.0,87,0.00,,---,0.00,VWS V14.00,2013-03-10 20:09:00,
2013-03-10 13:14:00,44.0,40.1,30.46,NW,313,0.0,2.0,86,0.00,,---,0.00,VWS V14.00,2013-03-10 20:14:00,
2013-03-10 13:19:00,44.5,40.6,30.46,West,259,5.0,5.0,86,0.00,,---,0.00,VWS V14.00,2013-03-10 20:19:00,
2013-03-10 13:24:00,44.0,39.8,30.46,West,279,0.0,5.0,85,0.00,,---,0.00,VWS V14.00,2013-03-10 20:24:00,
2013-03-10 13:29:00,44.2,40.3,30.46,West,279,0.0,1.0,86,0.00,,---,0.00,VWS V14.00,2013-03-10 20:29:00,
2013-03-10 13:34:00,44.1,39.9,30.45,ENE,59,0.0,3.0,85,0.00,,---,0.00,VWS V14.00,2013-03-10 20:34:00,
2013-03-10 13:39:00,44.0,39.8,30.45,ENE,59,0.0,1.0,85,0.00,,---,0.00,VWS V14.00,2013-03-10 20:39:00,
2013-03-10 13:44:00,43.7,39.8,30.45,NE,38,0.0,2.0,86,0.00,,---,0.00,VWS V14.00,2013-03-10 20:44:00,
2013-03-10 13:49:00,43.9,40.0,30.45,NE,38,1.0,2.0,86,0.00,,---,0.00,VWS V14.00,2013-03-10 20:49:00,
2013-03-10 13:54:00,44.0,40.1,30.45,NE,38,0.0,1.0,86,0.00,,---,0.00,VWS V14.00,2013-03-10 20:54:00,
2013-03-10 13:59:00,44.1,39.9,30.45,NE,38,0.0,1.0,85,0.00,,---,0.00,VWS V14.00,2013-03-10 20:59:00,
2013-03-10 14:04:00,44.1,39.9,30.45,NE,38,0.0,1.0,85,0.00,,---,0.00,VWS V14.00,2013-03-10 21:04:00,
2013-03-10 14:09:00,44.0,39.8,30.45,East,94,0.0,4.0,85,0.00,,---,0.00,VWS V14.00,2013-03-10 21:09:00,
2013-03-10 14:14:00,44.3,40.4,30.44,East,94,0.0,2.0,86,0.00,,---,0.00,VWS V14.00,2013-03-10 21:14:00,
2013-03-10 14:19:00,44.5,40.6,30.44,East,93,0.0,2.0,86,0.00,,---,0.00,VWS V14.00,2013-03-10 21:19:00,
2013-03-10 14:24:00,44.6,41.6,30.44,East,86,0.0,1.0,89,0.00,,---,0.00,VWS V14.00,2013-03-10 21:24:00,
2013-03-10 14:29:00,44.5,40.0,30.44,East,86,0.0,1.0,84,0.00,,---,0.00,VWS V14.00,2013-03-10 21:29:00,
2013-03-10 14:34:00,44.5,40.3,30.44,East,86,0.0,1.0,85,0.00,,---,0.00,VWS V14.00,2013-03-10 21:34:00,
2013-03-10 14:39:00,44.3,39.8,30.44,NW,305,1.0,4.0,84,0.00,,---,0.00,VWS V14.00,2013-03-10 21:39:00,
2013-03-10 14:44:00,44.2,39.7,30.44,West,273,0.0,7.0,84,0.00,,---,0.00,VWS V14.00,2013-03-10 21:44:00,
2013-03-10 14:49:00,44.6,40.7,30.44,West,273,1.0,1.0,86,0.00,,---,0.00,VWS V14.00,2013-03-10 21:49:00,
2013-03-10 14:54:00,44.3,39.8,30.44,SE,146,1.0,2.0,84,0.00,,---,0.00,VWS V14.00,2013-03-10 21:54:00,
2013-03-10 14:59:00,44.4,40.2,30.43,SE,138,0.0,2.0,85,0.00,,---,0.00,VWS V14.00,2013-03-10 21:59:00,
2013-03-10 15:04:00,44.5,40.3,30.43,WSW,246,0.0,2.0,85,0.00,,---,0.00,VWS V14.00,2013-03-10 22:04:00,
2013-03-10 15:09:00,44.6,40.7,30.43,NW,317,0.0,2.0,86,0.00,,---,0.00,VWS V14.00,2013-03-10 22:09:00,
2013-03-10 15:14:00,44.3,40.4,30.44,NE,35,0.0,2.0,86,0.00,,---,0.00,VWS V14.00,2013-03-10 22:14:00,
2013-03-10 15:19:00,44.7,41.1,30.44,NE,35,0.0,0.0,87,0.00,,---,0.00,VWS V14.00,2013-03-10 22:19:00,
2013-03-10 15:24:00,44.9,41.0,30.44,NE,34,0.0,1.0,86,0.00,,---,0.00,VWS V14.00,2013-03-10 22:24:00,
2013-03-10 15:29:00,44.5,40.6,30.44,ENE,75,0.0,4.0,86,0.00,,---,0.00,VWS V14.00,2013-03-10 22:29:00,
2013-03-10 15:34:00,44.7,40.8,30.44,North,355,0.0,2.0,86,0.00,,---,0.00,VWS V14.00,2013-03-10 22:34:00,
2013-03-10 15:39:00,44.9,41.0,30.44,North,355,0.0,2.0,86,0.00,,---,0.00,VWS V14.00,2013-03-10 22:39:00,
2013-03-10 15:44:00,45.1,40.9,30.43,North,355,1.0,1.0,85,0.00,,---,0.00,VWS V14.00,2013-03-10 22:44:00,
2013-03-10 15:49:00,45.2,41.3,30.44,North,355,0.0,2.0,86,0.00,,---,0.00,VWS V14.00,2013-03-10 22:49:00,
2013-03-10 15:54:00,45.1,40.9,30.44,NE,35,0.0,3.0,85,0.00,,---,0.00,VWS V14.00,2013-03-10 22:54:00,
2013-03-10 15:59:00,45.1,40.9,30.43,NE,35,0.0,1.0,85,0.00,,---,0.00,VWS V14.00,2013-03-10 22:59:00,
2013-03-10 16:04:00,45.2,41.0,30.43,NNW,329,2.0,4.0,85,0.00,,---,0.00,VWS V14.00,2013-03-10 23:04:00,
2013-03-10 16:09:00,45.4,41.5,30.43,NNW,329,0.0,2.0,86,0.00,,---,0.00,VWS V14.00,2013-03-10 23:09:00,
2013-03-10 16:14:00,45.2,41.0,30.43,North,350,0.0,2.0,85,0.00,,---,0.00,VWS V14.00,2013-03-10 23:14:00,
2013-03-10 16:19:00,45.1,40.6,30.43,North,350,0.0,1.0,84,0.00,,---,0.00,VWS V14.00,2013-03-10 23:19:00,
2013-03-10 16:24:00,45.2,41.0,30.43,North,350,0.0,0.0,85,0.00,,---,0.00,VWS V14.00,2013-03-10 23:24:00,
2013-03-10 16:29:00,45.0,40.5,30.43,North,350,0.0,1.0,84,0.00,,---,0.00,VWS V14.00,2013-03-10 23:29:00,
2013-03-10 16:34:00,45.1,40.9,30.43,North,350,0.0,0.0,85,0.00,,---,0.00,VWS V14.00,2013-03-10 23:34:00,
2013-03-10 16:39:00,45.1,40.9,30.43,North,351,0.0,1.0,85,0.00,,---,0.00,VWS V14.00,2013-03-10 23:39:00,
2013-03-10 16:44:00,45.2,41.0,30.43,North,350,1.0,1.0,85,0.00,,---,0.00,VWS V14.00,2013-03-10 23:44:00,
2013-03-10 16:49:00,45.0,40.5,30.44,ENE,72,0.0,2.0,84,0.00,,---,0.00,VWS V14.00,2013-03-10 23:49:00,
2013-03-10 16:54:00,44.8,40.3,30.43,ENE,71,0.0,1.0,84,0.00,,---,0.00,VWS V14.00,2013-03-10 23:54:00,
2013-03-10 16:59:00,44.8,40.3,30.43,ENE,71,0.0,0.0,84,0.00,,---,0.00,VWS V14.00,2013-03-10 23:59:00,
2013-03-10 17:04:00,44.8,40.6,30.43,North,355,0.0,1.0,85,0.00,,---,0.00,VWS V14.00,2013-03-11 00:04:00,
2013-03-10 17:09:00,44.6,40.1,30.43,WSW,246,0.0,4.0,84,0.00,,---,0.00,VWS V14.00,2013-03-11 00:09:00,
2013-03-10 17:14:00,44.5,40.0,30.43,WSW,246,0.0,1.0,84,0.00,,---,0.00,VWS V14.00,2013-03-11 00:14:00,
2013-03-10 17:19:00,44.5,40.0,30.43,WSW,245,0.0,1.0,84,0.00,,---,0.00,VWS V14.00,2013-03-11 00:19:00,
2013-03-10 17:24:00,44.5,40.0,30.43,WSW,245,0.0,1.0,84,0.00,,---,0.00,VWS V14.00,2013-03-11 00:24:00,
2013-03-10 17:29:00,44.6,40.1,30.43,WSW,245,0.0,0.0,84,0.00,,---,0.00,VWS V14.00,2013-03-11 00:29:00,
2013-03-10 17:34:00,44.6,40.1,30.43,WSW,245,0.0,0.0,84,0.00,,---,0.00,VWS V14.00,2013-03-11 00:34:00,
2013-03-10 17:39:00,44.6,39.8,30.43,WSW,245,0.0,0.0,83,0.00,,---,0.00,VWS V14.00,2013-03-11 00:39:00,
2013-03-10 17:44:00,44.7,40.2,30.42,WSW,246,0.0,0.0,84,0.00,,---,0.00,VWS V14.00,2013-03-11 00:44:00,
2013-03-10 17:49:00,44.8,40.3,30.42,WSW,246,0.0,0.0,84,0.00,,---,0.00,VWS V14.00,2013-03-11 00:49:00,
2013-03-10 17:54:00,44.9,40.4,30.42,WSW,245,0.0,0.0,84,0.00,,---,0.00,VWS V14.00,2013-03-11 00:54:00,
2013-03-10 17:59:00,44.8,40.3,30.42,WSW,246,0.0,0.0,84,0.00,,---,0.00,VWS V14.00,2013-03-11 00:59:00,
2013-03-10 18:04:00,44.7,40.2,30.42,WSW,246,0.0,0.0,84,0.00,,---,0.00,VWS V14.00,2013-03-11 01:04:00,
2013-03-10 18:09:00,44.6,40.1,30.42,WSW,245,0.0,0.0,84,0.00,,---,0.00,VWS V14.00,2013-03-11 01:09:00,
2013-03-10 18:14:00,44.4,40.2,30.41,WSW,245,0.0,0.0,85,0.00,,---,0.00,VWS V14.00,2013-03-11 01:14:00,
2013-03-10 18:19:00,44.1,39.9,30.42,WSW,246,0.0,0.0,85,0.00,,---,0.00,VWS V14.00,2013-03-11 01:19:00,
2013-03-10 18:24:00,43.7,39.8,30.42,WSW,246,0.0,0.0,86,0.00,,---,0.00,VWS V14.00,2013-03-11 01:24:00,
2013-03-10 18:29:00,43.4,39.5,30.41,WSW,246,0.0,0.0,86,0.00,,---,0.00,VWS V14.00,2013-03-11 01:29:00,
2013-03-10 18:34:00,43.0,39.1,30.42,WSW,246,0.0,0.0,86,0.00,,---,0.00,VWS V14.00,2013-03-11 01:34:00,
2013-03-10 18:39:00,42.7,38.8,30.42,WSW,245,0.0,0.0,86,0.00,,---,0.00,VWS V14.00,2013-03-11 01:39:00,
2013-03-10 18:44:00,42.4,38.8,30.41,WSW,245,0.0,0.0,87,0.00,,---,0.00,VWS V14.00,2013-03-11 01:44:00,
2013-03-10 18:49:00,42.0,38.4,30.41,WSW,246,0.0,0.0,87,0.00,,---,0.00,VWS V14.00,2013-03-11 01:49:00,
2013-03-10 18:54:00,41.6,38.0,30.41,WSW,246,0.0,0.0,87,0.00,,---,0.00,VWS V14.00,2013-03-11 01:54:00,
2013-03-10 18:59:00,41.3,38.0,30.41,WSW,245,0.0,0.0,88,0.00,,---,0.00,VWS V14.00,2013-03-11 01:59:00,
2013-03-10 19:04:00,41.0,37.7,30.42,WSW,245,0.0,0.0,88,0.00,,---,0.00,VWS V14.00,2013-03-11 02:04:00,
2013-03-10 19:09:00,40.7,37.4,30.41,WSW,246,0.0,0.0,88,0.00,,---,0.00,VWS V14.00,2013-03-11 02:09:00,
2013-03-10 19:14:00,40.4,37.1,30.41,WSW,246,0.0,0.0,88,0.00,,---,0.00,VWS V14.00,2013-03-11 02:14:00,
2013-03-10 19:19:00,40.1,37.1,30.41,WSW,245,0.0,0.0,89,0.00,,---,0.00,VWS V14.00,2013-03-11 02:19:00,
2013-03-10 19:24:00,39.9,36.9,30.41,WSW,246,0.0,0.0,89,0.00,,---,0.00,VWS V14.00,2013-03-11 02:24:00,
2013-03-10 19:29:00,39.8,36.8,30.41,WSW,246,0.0,0.0,89,0.00,,---,0.00,VWS V14.00,2013-03-11 02:29:00,
2013-03-10 19:34:00,39.6,36.6,30.41,WSW,245,0.0,0.0,89,0.00,,---,0.00,VWS V14.00,2013-03-11 02:34:00,
2013-03-10 19:39:00,39.4,36.4,30.41,WSW,245,0.0,0.0,89,0.00,,---,0.00,VWS V14.00,2013-03-11 02:39:00,
2013-03-10 19:44:00,39.2,36.5,30.41,WSW,245,0.0,0.0,90,0.00,,---,0.00,VWS V14.00,2013-03-11 02:44:00,
2013-03-10 19:49:00,39.1,36.4,30.41,WSW,245,0.0,0.0,90,0.00,,---,0.00,VWS V14.00,2013-03-11 02:49:00,
2013-03-10 19:54:00,38.9,36.2,30.41,WSW,245,0.0,0.0,90,0.00,,---,0.00,VWS V14.00,2013-03-11 02:54:00,
2013-03-10 19:59:00,38.9,36.2,30.41,WSW,245,0.0,0.0,90,0.00,,---,0.00,VWS V14.00,2013-03-11 02:59:00,
2013-03-10 20:04:00,38.9,36.2,30.41,WSW,246,0.0,0.0,90,0.00,,---,0.00,VWS V14.00,2013-03-11 03:04:00,
2013-03-10 20:09:00,38.9,36.2,30.41,WSW,245,0.0,0.0,90,0.00,,---,0.00,VWS V14.00,2013-03-11 03:09:00,
2013-03-10 20:14:00,38.7,36.0,30.42,WSW,246,0.0,0.0,90,0.00,,---,0.00,VWS V14.00,2013-03-11 03:14:00,
2013-03-10 20:19:00,38.5,35.8,30.42,WSW,245,0.0,0.0,90,0.00,,---,0.00,VWS V14.00,2013-03-11 03:19:00,
2013-03-10 20:24:00,38.4,36.0,30.42,WSW,246,0.0,0.0,91,0.00,,---,0.00,VWS V14.00,2013-03-11 03:24:00,
2013-03-10 20:29:00,38.3,35.6,30.42,WSW,246,0.0,0.0,90,0.00,,---,0.00,VWS V14.00,2013-03-11 03:29:00,
2013-03-10 20:34:00,38.2,35.8,30.42,WSW,245,0.0,0.0,91,0.00,,---,0.00,VWS V14.00,2013-03-11 03:34:00,
2013-03-10 20:39:00,38.2,35.8,30.42,WSW,245,0.0,0.0,91,0.00,,---,0.00,VWS V14.00,2013-03-11 03:39:00,
2013-03-10 20:44:00,38.1,35.7,30.42,WSW,246,0.0,0.0,91,0.00,,---,0.00,VWS V14.00,2013-03-11 03:44:00,
2013-03-10 20:49:00,38.1,35.7,30.42,WSW,246,0.0,0.0,91,0.00,,---,0.00,VWS V14.00,2013-03-11 03:49:00,
2013-03-10 20:54:00,38.1,35.7,30.42,WSW,245,0.0,0.0,91,0.00,,---,0.00,VWS V14.00,2013-03-11 03:54:00,
2013-03-10 20:59:00,38.2,35.8,30.42,WSW,245,0.0,0.0,91,0.00,,---,0.00,VWS V14.00,2013-03-11 03:59:00,
2013-03-10 21:00:00,38.2,35.8,30.42,WSW,245,0.0,0.0,91,0.00,,---,0.00,VWS V14.00,2013-03-11 04:00:00,
2013-03-10 21:05:00,38.2,35.8,30.42,WSW,246,0.0,0.0,91,0.00,,---,0.00,VWS V14.00,2013-03-11 04:05:00,
2013-03-10 21:10:00,38.0,35.6,30.42,WSW,245,0.0,0.0,91,0.00,,---,0.00,VWS V14.00,2013-03-11 04:10:00,
2013-03-10 21:15:00,37.9,35.5,30.42,WSW,245,0.0,0.0,91,0.00,,---,0.00,VWS V14.00,2013-03-11 04:15:00,
2013-03-10 21:20:00,37.7,35.3,30.42,WSW,245,0.0,0.0,91,0.00,,---,0.00,VWS V14.00,2013-03-11 04:20:00,
2013-03-10 21:25:00,37.4,35.0,30.42,WSW,245,0.0,0.0,91,0.00,,---,0.00,VWS V14.00,2013-03-11 04:25:00,
2013-03-10 21:30:00,37.3,34.9,30.42,WSW,245,0.0,0.0,91,0.00,,---,0.00,VWS V14.00,2013-03-11 04:30:00,
2013-03-10 21:35:00,37.1,34.7,30.42,WSW,246,0.0,0.0,91,0.00,,---,0.00,VWS V14.00,2013-03-11 04:35:00,
2013-03-10 21:40:00,37.0,34.6,30.42,WSW,246,0.0,0.0,91,0.00,,---,0.00,VWS V14.00,2013-03-11 04:40:00,
2013-03-10 21:45:00,37.0,34.6,30.42,WSW,246,0.0,0.0,91,0.00,,---,0.00,VWS V14.00,2013-03-11 04:45:00,
2013-03-10 21:50:00,37.3,35.2,30.42,WSW,245,0.0,0.0,92,0.00,,---,0.00,VWS V14.00,2013-03-11 04:50:00,
2013-03-10 21:55:00,37.3,34.9,30.42,WSW,245,0.0,0.0,91,0.00,,---,0.00,VWS V14.00,2013-03-11 04:55:00,
2013-03-10 22:00:00,37.3,34.9,30.42,WSW,245,0.0,0.0,91,0.00,,---,0.00,VWS V14.00,2013-03-11 05:00:00,
2013-03-10 22:05:00,37.3,34.9,30.42,WSW,246,0.0,0.0,91,0.00,,---,0.00,VWS V14.00,2013-03-11 05:05:00,
2013-03-10 22:10:00,37.3,35.2,30.41,WSW,245,0.0,0.0,92,0.00,,---,0.00,VWS V14.00,2013-03-11 05:10:00,
2013-03-10 22:15:00,37.4,35.3,30.41,WSW,246,0.0,0.0,92,0.00,,---,0.00,VWS V14.00,2013-03-11 05:15:00,
2013-03-10 22:20:00,37.4,35.0,30.41,WSW,246,0.0,0.0,91,0.00,,---,0.00,VWS V14.00,2013-03-11 05:20:00,
2013-03-10 22:25:00,37.3,34.9,30.41,WSW,246,0.0,0.0,91,0.00,,---,0.00,VWS V14.00,2013-03-11 05:25:00,
2013-03-10 22:30:00,37.3,34.9,30.42,WSW,246,0.0,0.0,91,0.00,,---,0.00,VWS V14.00,2013-03-11 05:30:00,
2013-03-10 22:35:00,37.3,34.9,30.42,WSW,245,0.0,0.0,91,0.00,,---,0.00,VWS V14.00,2013-03-11 05:35:00,
2013-03-10 22:40:00,37.3,34.9,30.42,WSW,246,0.0,0.0,91,0.00,,---,0.00,VWS V14.00,2013-03-11 05:40:00,
2013-03-10 22:45:00,37.1,34.7,30.42,WSW,246,0.0,0.0,91,0.00,,---,0.00,VWS V14.00,2013-03-11 05:45:00,
2013-03-10 22:50:00,36.9,34.5,30.42,WSW,246,0.0,0.0,91,0.00,,---,0.00,VWS V14.00,2013-03-11 05:50:00,
2013-03-10 22:55:00,36.6,34.2,30.42,WSW,245,0.0,0.0,91,0.00,,---,0.00,VWS V14.00,2013-03-11 05:55:00,
2013-03-10 23:00:00,36.4,34.0,30.42,WSW,246,0.0,0.0,91,0.00,,---,0.00,VWS V14.00,2013-03-11 06:00:00,
2013-03-10 23:05:00,36.4,34.0,30.43,WSW,246,0.0,0.0,91,0.00,,---,0.00,VWS V14.00,2013-03-11 06:05:00,
2013-03-10 23:10:00,36.4,34.0,30.43,WSW,246,0.0,0.0,91,0.00,,---,0.00,VWS V14.00,2013-03-11 06:10:00,
2013-03-10 23:15:00,36.4,34.0,30.43,WSW,245,0.0,0.0,91,0.00,,---,0.00,VWS V14.00,2013-03-11 06:15:00,
2013-03-10 23:20:00,36.5,34.4,30.43,WSW,245,0.0,0.0,92,0.00,,---,0.00,VWS V14.00,2013-03-11 06:20:00,
2013-03-10 23:25:00,36.6,34.5,30.43,WSW,245,0.0,0.0,92,0.00,,---,0.00,VWS V14.00,2013-03-11 06:25:00,
2013-03-10 23:30:00,36.6,34.5,30.43,WSW,245,0.0,0.0,92,0.00,,---,0.00,VWS V14.00,2013-03-11 06:30:00,
2013-03-10 23:35:00,36.5,34.4,30.44,WSW,246,0.0,0.0,92,0.00,,---,0.00,VWS V14.00,2013-03-11 06:35:00,
2013-03-10 23:40:00,36.4,34.3,30.44,WSW,246,0.0,0.0,92,0.00,,---,0.00,VWS V14.00,2013-03-11 06:40:00,
2013-03-10 23:45:00,36.3,34.2,30.44,WSW,245,0.0,0.0,92,0.00,,---,0.00,VWS V14.00,2013-03-11 06:45:00,
2013-03-10 23:50:00,36.4,34.3,30.44,WSW,246,0.0,0.0,92,0.00,,---,0.00,VWS V14.00,2013-03-11 06:50:00,
2013-03-10 23:55:00,36.4,34.3,30.43,WSW,245,0.0,0.0,92,0.00,,---,0.00,VWS V14.00,2013-03-11 06:55:00,